createdAt,value
2019-02-08T00:01:22.023Z,84.71
2019-02-08T00:03:51.296Z,84.60
2019-02-08T00:06:20.599Z,84.54
2019-02-08T00:08:49.870Z,84.49
2019-02-08T00:11:19.124Z,84.69
2019-02-08T00:13:48.438Z,84.78
2019-02-08T00:16:17.743Z,84.88
2019-02-08T00:18:47.422Z,84.90
2019-02-08T00:21:16.750Z,84.96
2019-02-08T00:23:46.133Z,84.80
2019-02-08T00:26:15.620Z,84.79
2019-02-08T00:28:44.889Z,84.71
2019-02-08T00:31:14.184Z,84.74
2019-02-08T00:33:43.859Z,84.33
2019-02-08T00:36:13.137Z,84.38
2019-02-08T00:38:43.034Z,84.37
2019-02-08T00:41:12.285Z,84.19
2019-02-08T00:43:41.615Z,84.62
2019-02-08T00:46:11.077Z,84.52
2019-02-08T00:48:40.365Z,84.62
2019-02-08T00:51:09.660Z,84.65
2019-02-08T00:53:38.911Z,84.55
2019-02-08T00:56:08.197Z,84.46
2019-02-08T00:58:37.508Z,84.61
2019-02-08T01:01:06.843Z,84.28
2019-02-08T01:03:36.104Z,84.44
2019-02-08T01:06:06.267Z,84.55
2019-02-08T01:08:35.529Z,84.32
2019-02-08T01:11:04.820Z,84.51
2019-02-08T01:13:34.097Z,84.24
2019-02-08T01:16:03.466Z,84.19
2019-02-08T01:18:32.779Z,83.96
2019-02-08T01:21:02.524Z,84.10
2019-02-08T01:23:31.808Z,83.86
2019-02-08T01:26:01.076Z,83.92
2019-02-08T01:28:30.372Z,83.87
2019-02-08T01:30:59.665Z,83.82
2019-02-08T01:33:28.937Z,83.80
2019-02-08T01:35:58.223Z,83.60
2019-02-08T01:38:27.491Z,83.80
2019-02-08T01:40:56.796Z,83.71
2019-02-08T01:43:26.085Z,83.61
2019-02-08T01:45:55.366Z,83.33
2019-02-08T01:48:24.669Z,83.41
2019-02-08T01:50:53.979Z,83.27
2019-02-08T01:53:23.253Z,83.19
2019-02-08T01:55:52.512Z,83.10
2019-02-08T01:58:21.788Z,82.91
2019-02-08T02:00:51.052Z,82.83
2019-02-08T02:03:20.717Z,82.79
2019-02-08T02:05:49.968Z,82.75
2019-02-08T02:08:19.260Z,82.10
2019-02-08T02:10:48.576Z,82.10
2019-02-08T02:13:17.832Z,81.55
2019-02-08T02:15:47.249Z,81.20
2019-02-08T02:18:16.529Z,81.54
2019-02-08T02:20:45.874Z,81.32
2019-02-08T02:23:16.542Z,81.06
2019-02-08T02:25:46.131Z,81.54
2019-02-08T02:28:15.412Z,81.95
2019-02-08T02:30:44.678Z,81.94
2019-02-08T02:33:14.449Z,81.71
2019-02-08T02:35:44.307Z,81.65
2019-02-08T02:38:13.570Z,81.42
2019-02-08T02:40:42.831Z,81.54
2019-02-08T02:43:12.215Z,81.42
2019-02-08T02:45:42.417Z,81.61
2019-02-08T02:48:14.655Z,81.74
2019-02-08T02:50:43.916Z,81.77
2019-02-08T02:53:13.176Z,81.53
2019-02-08T02:55:42.456Z,80.96
2019-02-08T02:58:11.726Z,80.96
2019-02-08T03:00:43.435Z,80.58
2019-02-08T03:03:14.423Z,80.58
2019-02-08T03:05:44.180Z,80.43
2019-02-08T03:08:15.498Z,80.49
2019-02-08T03:10:45.350Z,80.44
2019-02-08T03:13:14.848Z,80.38
2019-02-08T03:15:44.420Z,80.69
2019-02-08T03:18:14.216Z,80.91
2019-02-08T03:20:43.600Z,80.46
2019-02-08T03:23:13.050Z,81.02
2019-02-08T03:25:42.335Z,81.20
2019-02-08T03:28:11.687Z,81.11
2019-02-08T03:30:58.056Z,81.41
2019-02-08T03:33:27.510Z,81.53
2019-02-08T03:35:56.801Z,81.40
2019-02-08T03:38:26.051Z,81.53
2019-02-08T03:40:55.305Z,81.44
2019-02-08T03:43:24.577Z,80.79
2019-02-08T03:45:54.395Z,81.09
2019-02-08T03:48:23.684Z,80.76
2019-02-08T03:50:52.962Z,80.32
2019-02-08T03:53:22.247Z,80.73
2019-02-08T03:55:58.165Z,80.88
2019-02-08T03:58:23.111Z,80.77
2019-02-08T04:00:57.144Z,80.73
2019-02-08T04:03:26.429Z,80.62
2019-02-08T04:05:56.136Z,80.73
2019-02-08T04:08:25.400Z,81.24
2019-02-08T04:10:54.681Z,80.64
2019-02-08T04:13:23.928Z,80.54
2019-02-08T04:15:53.392Z,80.99
2019-02-08T04:18:22.789Z,81.03
2019-02-08T04:20:52.095Z,81.36
2019-02-08T04:23:21.337Z,80.77
2019-02-08T04:25:50.819Z,80.91
2019-02-08T04:28:20.067Z,80.97
2019-02-08T04:30:49.341Z,80.95
2019-02-08T04:33:18.597Z,81.33
2019-02-08T04:35:47.855Z,81.29
2019-02-08T04:38:18.435Z,81.18
2019-02-08T04:40:47.856Z,80.96
2019-02-08T04:43:17.117Z,80.84
2019-02-08T04:45:46.400Z,80.91
2019-02-08T04:48:15.663Z,81.10
2019-02-08T04:50:44.937Z,81.16
2019-02-08T04:53:14.183Z,81.31
2019-02-08T04:55:43.465Z,80.75
2019-02-08T04:58:12.743Z,81.13
2019-02-08T05:00:41.993Z,81.73
2019-02-08T05:03:11.249Z,81.69
2019-02-08T05:05:40.532Z,81.66
2019-02-08T05:08:09.795Z,81.84
2019-02-08T05:10:39.072Z,81.72
2019-02-08T05:13:08.355Z,81.38
2019-02-08T05:15:37.637Z,82.15
2019-02-08T05:18:07.122Z,81.90
2019-02-08T05:20:36.401Z,81.78
2019-02-08T05:23:05.708Z,81.96
2019-02-08T05:25:34.987Z,81.46
2019-02-08T05:28:04.353Z,81.29
2019-02-08T05:30:35.443Z,81.69
2019-02-08T05:33:05.776Z,81.40
2019-02-08T05:35:35.354Z,81.34
2019-02-08T05:38:05.024Z,81.60
2019-02-08T05:40:34.276Z,81.89
2019-02-08T05:43:03.657Z,81.74
2019-02-08T05:45:33.612Z,81.34
2019-02-08T05:48:03.189Z,81.36
2019-02-08T05:50:32.441Z,81.58
2019-02-08T05:53:01.727Z,81.29
2019-02-08T05:55:31.562Z,81.36
2019-02-08T05:58:03.587Z,81.16
2019-02-08T06:00:48.186Z,81.09
2019-02-08T06:03:18.357Z,81.17
2019-02-08T06:05:51.032Z,81.15
2019-02-08T06:08:23.378Z,81.36
2019-02-08T06:10:54.398Z,81.25
2019-02-08T06:13:24.523Z,81.33
2019-02-08T06:15:55.492Z,81.48
2019-02-08T06:18:27.067Z,81.00
2019-02-08T06:20:58.095Z,81.31
2019-02-08T06:23:31.078Z,81.67
2019-02-08T06:26:02.599Z,81.31
2019-02-08T06:28:32.312Z,80.73
2019-02-08T06:31:02.688Z,80.79
2019-02-08T06:33:32.224Z,80.93
2019-02-08T06:36:02.327Z,81.12
2019-02-08T06:38:31.998Z,80.83
2019-02-08T06:41:01.700Z,80.56
2019-02-08T06:43:31.533Z,80.78
2019-02-08T06:46:01.205Z,80.83
2019-02-08T06:48:31.772Z,80.75
2019-02-08T06:51:01.254Z,80.67
2019-02-08T06:53:30.547Z,80.63
2019-02-08T06:55:59.828Z,80.26
2019-02-08T06:58:42.653Z,80.22
2019-02-08T07:01:33.852Z,79.98
2019-02-08T07:04:29.353Z,79.47
2019-02-08T07:07:08.125Z,79.43
2019-02-08T07:10:14.774Z,79.20
2019-02-08T07:13:01.580Z,80.00
2019-02-08T07:15:47.118Z,79.04
2019-02-08T07:18:40.037Z,79.41
2019-02-08T07:21:39.912Z,79.81
2019-02-08T07:24:25.313Z,79.90
2019-02-08T07:27:13.550Z,79.64
2019-02-08T07:29:57.708Z,80.16
2019-02-08T07:32:45.935Z,79.44
2019-02-08T07:35:31.193Z,80.24
2019-02-08T07:38:19.154Z,79.91
2019-02-08T07:41:11.392Z,80.04
2019-02-08T07:44:09.095Z,79.61
2019-02-08T07:47:11.381Z,78.75
2019-02-08T07:50:01.620Z,79.38
2019-02-08T07:52:48.947Z,79.23
2019-02-08T07:55:42.762Z,79.06
2019-02-08T07:58:46.619Z,79.36
2019-02-08T08:01:38.784Z,78.50
2019-02-08T08:04:29.173Z,77.92
2019-02-08T08:07:36.036Z,78.05
2019-02-08T08:10:15.349Z,77.89
2019-02-08T08:13:03.650Z,77.75
2019-02-08T08:15:58.244Z,77.45
2019-02-08T08:18:45.355Z,77.36
2019-02-08T08:21:32.820Z,77.84
2019-02-08T08:24:12.011Z,76.87
2019-02-08T08:27:14.374Z,76.39
2019-02-08T08:30:04.260Z,75.65
2019-02-08T08:32:41.756Z,75.20
2019-02-08T08:35:34.794Z,72.19
2019-02-08T08:38:57.240Z,68.79
2019-02-08T08:41:59.698Z,67.67
2019-02-08T08:45:04.885Z,66.37
2019-02-08T08:47:58.776Z,66.29
2019-02-08T08:50:54.252Z,68.57
2019-02-08T08:54:10.356Z,69.64
2019-02-08T08:57:02.891Z,69.48
2019-02-08T08:59:49.960Z,69.89
2019-02-08T09:02:34.714Z,69.90
2019-02-08T09:05:49.561Z,68.58
2019-02-08T09:08:57.396Z,69.11
2019-02-08T09:11:54.082Z,66.96
2019-02-08T09:15:01.373Z,63.60
2019-02-08T09:18:02.096Z,63.30
2019-02-08T09:21:20.440Z,64.11
2019-02-08T09:24:16.731Z,64.47
2019-02-08T09:27:25.951Z,63.71
2019-02-08T09:30:41.531Z,62.31
2019-02-08T09:33:59.966Z,61.63
2019-02-08T09:37:10.407Z,65.04
2019-02-08T09:40:22.951Z,62.69
2019-02-08T09:43:54.573Z,62.95
2019-02-08T09:47:05.808Z,61.88
2019-02-08T09:50:10.869Z,61.28
2019-02-08T09:53:07.640Z,62.84
2019-02-08T09:56:27.232Z,62.02
2019-02-08T09:59:36.270Z,61.30
2019-02-08T10:02:42.188Z,61.32
2019-02-08T10:05:51.156Z,59.57
2019-02-08T10:09:15.516Z,59.60
2019-02-08T10:12:30.404Z,57.70
2019-02-08T10:15:37.129Z,53.73
2019-02-08T10:19:01.685Z,52.74
2019-02-08T10:22:07.810Z,49.63
2019-02-08T10:25:32.545Z,50.83
2019-02-08T10:28:39.769Z,52.05
2019-02-08T10:31:44.723Z,49.31
2019-02-08T10:34:49.514Z,52.04
2019-02-08T10:37:49.893Z,51.54
2019-02-08T10:40:56.250Z,51.23
2019-02-08T10:44:03.553Z,52.92
2019-02-08T10:47:04.780Z,51.81
2019-02-08T10:49:59.469Z,49.75
2019-02-08T10:53:08.735Z,50.76
2019-02-08T10:56:34.242Z,51.12
2019-02-08T10:59:31.411Z,51.72
2019-02-08T11:02:42.392Z,51.93
2019-02-08T11:05:52.492Z,51.41
2019-02-08T11:09:01.842Z,52.08
2019-02-08T11:12:06.884Z,51.19
2019-02-08T11:15:25.924Z,51.00
2019-02-08T11:18:36.281Z,52.29
2019-02-08T11:21:06.689Z,53.01
2019-02-08T11:23:35.984Z,51.23
2019-02-08T11:26:06.516Z,51.92
2019-02-08T11:28:35.764Z,51.61
2019-02-08T11:31:05.485Z,52.32
2019-02-08T11:33:35.018Z,52.16
2019-02-08T11:36:05.178Z,52.28
2019-02-08T11:38:34.477Z,51.12
2019-02-08T11:41:03.879Z,52.33
2019-02-08T11:43:33.312Z,50.89
2019-02-08T11:46:02.567Z,49.85
2019-02-08T11:48:31.855Z,48.62
2019-02-08T11:51:01.112Z,49.04
2019-02-08T11:53:30.388Z,49.54
2019-02-08T11:55:59.717Z,49.30
2019-02-08T11:58:28.977Z,48.94
2019-02-08T12:00:59.354Z,49.85
2019-02-08T12:03:28.609Z,49.10
2019-02-08T12:05:57.869Z,48.24
2019-02-08T12:08:27.352Z,47.54
2019-02-08T12:10:56.602Z,47.25
2019-02-08T12:13:25.886Z,47.99
2019-02-08T12:15:55.142Z,47.34
2019-02-08T12:18:24.392Z,46.76
2019-02-08T12:20:54.156Z,47.68
2019-02-08T12:23:23.455Z,46.53
2019-02-08T12:25:52.809Z,44.94
2019-02-08T12:28:22.063Z,44.08
2019-02-08T12:30:51.327Z,44.10
2019-02-08T12:33:20.637Z,44.63
2019-02-08T12:35:49.898Z,46.00
2019-02-08T12:38:19.297Z,44.23
2019-02-08T12:40:48.599Z,44.18
2019-02-08T12:43:17.974Z,45.18
2019-02-08T12:45:47.271Z,44.29
2019-02-08T12:48:16.548Z,45.02
2019-02-08T12:50:45.819Z,44.93
2019-02-08T12:53:15.093Z,44.68
2019-02-08T12:55:44.345Z,45.04
2019-02-08T12:58:13.657Z,47.68
2019-02-08T13:00:42.906Z,45.54
2019-02-08T13:03:12.164Z,43.86
2019-02-08T13:05:41.442Z,43.45
2019-02-08T13:08:10.783Z,43.98
2019-02-08T13:10:40.124Z,43.91
2019-02-08T13:13:09.411Z,41.74
2019-02-08T13:15:38.703Z,41.47
2019-02-08T13:18:07.977Z,43.00
2019-02-08T13:20:37.225Z,41.23
2019-02-08T13:23:06.514Z,41.45
2019-02-08T13:25:35.869Z,45.06
2019-02-08T13:28:05.152Z,47.20
2019-02-08T13:30:34.660Z,47.22
2019-02-08T13:33:04.107Z,48.75
2019-02-08T13:35:33.416Z,48.52
2019-02-08T13:38:03.119Z,48.55
2019-02-08T13:40:32.624Z,48.80
2019-02-08T13:43:01.907Z,49.54
2019-02-08T13:45:31.155Z,50.67
2019-02-08T13:48:00.538Z,51.67
2019-02-08T13:50:30.496Z,53.03
2019-02-08T13:52:59.798Z,52.22
2019-02-08T13:55:29.545Z,51.58
2019-02-08T13:57:58.794Z,51.29
2019-02-08T14:00:31.459Z,51.98
2019-02-08T14:03:01.218Z,52.35
2019-02-08T14:05:30.708Z,53.16
2019-02-08T14:07:59.953Z,53.65
2019-02-08T14:10:29.227Z,52.96
2019-02-08T14:12:58.530Z,52.71
2019-02-08T14:15:28.784Z,52.32
2019-02-08T14:17:58.057Z,52.70
2019-02-08T14:20:27.886Z,52.22
2019-02-08T14:22:57.171Z,52.13
2019-02-08T14:25:26.546Z,52.95
2019-02-08T14:27:55.807Z,53.93
2019-02-08T14:30:30.434Z,54.73
2019-02-08T14:33:00.921Z,54.74
2019-02-08T14:35:30.330Z,53.97
2019-02-08T14:38:00.626Z,54.08
2019-02-08T14:40:30.262Z,54.49
2019-02-08T14:42:59.527Z,54.51
2019-02-08T14:45:30.869Z,54.70
2019-02-08T14:48:01.611Z,55.22
2019-02-08T14:50:30.871Z,55.65
2019-02-08T14:53:01.616Z,55.21
2019-02-08T14:55:51.359Z,55.20
2019-02-08T14:58:20.759Z,55.77
2019-02-08T15:00:49.997Z,55.94
2019-02-08T15:03:19.254Z,56.51
2019-02-08T15:05:48.971Z,56.59
2019-02-08T15:08:18.205Z,56.07
2019-02-08T15:10:48.848Z,56.73
2019-02-08T15:13:18.117Z,56.36
2019-02-08T15:15:48.620Z,56.67
2019-02-08T15:18:18.729Z,57.03
2019-02-08T15:20:48.221Z,56.87
2019-02-08T15:23:17.559Z,57.18
2019-02-08T15:25:46.798Z,57.32
2019-02-08T15:28:16.072Z,57.39
2019-02-08T15:30:45.319Z,57.13
2019-02-08T15:33:14.573Z,57.46
2019-02-08T15:35:43.922Z,57.62
2019-02-08T15:38:13.163Z,57.67
2019-02-08T15:40:45.117Z,57.75
2019-02-08T15:43:15.413Z,58.20
2019-02-08T15:45:48.392Z,57.91
2019-02-08T15:48:17.742Z,58.50
2019-02-08T15:50:47.002Z,58.09
2019-02-08T15:53:16.291Z,58.53
2019-02-08T15:55:47.351Z,58.63
2019-02-08T15:58:16.884Z,59.04
2019-02-08T16:00:46.539Z,58.80
2019-02-08T16:03:15.999Z,58.77
2019-02-08T16:05:45.275Z,58.83
2019-02-08T16:08:14.540Z,58.74
2019-02-08T16:10:43.824Z,59.05
2019-02-08T16:13:13.109Z,58.80
2019-02-08T16:15:42.579Z,59.60
2019-02-08T16:18:12.132Z,59.57
2019-02-08T16:20:42.026Z,59.84
2019-02-08T16:23:11.504Z,59.62
2019-02-08T16:25:40.807Z,60.08
2019-02-08T16:28:10.079Z,60.29
2019-02-08T16:30:40.198Z,60.20
2019-02-08T16:33:09.527Z,60.14
2019-02-08T16:35:39.029Z,60.18
2019-02-08T16:38:08.462Z,60.67
2019-02-08T16:40:38.005Z,60.67
2019-02-08T16:43:09.027Z,60.84
2019-02-08T16:45:40.551Z,61.12
2019-02-08T16:48:10.958Z,61.20
2019-02-08T16:50:40.858Z,61.66
2019-02-08T16:53:10.813Z,61.84
2019-02-08T16:55:40.414Z,62.14
2019-02-08T16:58:10.404Z,61.94
2019-02-08T17:00:40.121Z,62.21
2019-02-08T17:03:11.424Z,62.45
2019-02-08T17:05:41.154Z,62.79
2019-02-08T17:08:11.333Z,62.86
2019-02-08T17:10:40.883Z,63.28
2019-02-08T17:13:10.258Z,63.08
2019-02-08T17:15:39.771Z,63.02
2019-02-08T17:18:09.266Z,63.54
2019-02-08T17:20:40.950Z,63.98
2019-02-08T17:23:12.494Z,64.12
2019-02-08T17:25:41.849Z,64.40
2019-02-08T17:28:13.047Z,64.08
2019-02-08T17:30:42.413Z,64.08
2019-02-08T17:33:12.385Z,64.31
2019-02-08T17:35:41.661Z,64.89
2019-02-08T17:38:12.257Z,64.62
2019-02-08T17:40:43.693Z,65.31
2019-02-08T17:43:14.282Z,65.59
2019-02-08T17:45:43.569Z,66.06
2019-02-08T17:48:15.149Z,65.96
2019-02-08T17:50:47.507Z,66.01
2019-02-08T17:53:16.793Z,66.42
2019-02-08T17:55:48.448Z,66.50
2019-02-08T17:58:19.007Z,66.90
2019-02-08T18:00:55.855Z,66.73
2019-02-08T18:03:25.482Z,66.93
2019-02-08T18:05:56.419Z,66.87
2019-02-08T18:08:27.074Z,66.75
2019-02-08T18:10:57.487Z,66.70
2019-02-08T18:13:28.342Z,66.81
2019-02-08T18:16:00.338Z,66.56
2019-02-08T18:18:31.522Z,66.78
2019-02-08T18:21:08.444Z,66.77
2019-02-08T18:23:39.038Z,66.94
2019-02-08T18:26:11.699Z,66.77
2019-02-08T18:28:41.250Z,66.63
2019-02-08T18:31:13.977Z,66.28
2019-02-08T18:33:44.625Z,65.93
2019-02-08T18:36:14.698Z,66.21
2019-02-08T18:38:45.169Z,66.78
2019-02-08T18:41:14.816Z,66.41
2019-02-08T18:43:44.489Z,66.63
2019-02-08T18:46:14.069Z,66.34
2019-02-08T18:48:45.682Z,66.26
2019-02-08T18:51:16.687Z,66.12
2019-02-08T18:53:47.946Z,65.92
2019-02-08T18:56:17.352Z,65.96
2019-02-08T18:58:48.016Z,65.67
2019-02-08T19:01:19.208Z,65.52
2019-02-08T19:03:48.704Z,65.70
2019-02-08T19:06:19.681Z,65.27
2019-02-08T19:08:50.586Z,65.51
2019-02-08T19:11:21.660Z,65.50
2019-02-08T19:13:52.706Z,65.77
2019-02-08T19:16:22.590Z,65.69
2019-02-08T19:18:54.973Z,65.53
2019-02-08T19:21:25.826Z,65.62
2019-02-08T19:23:56.694Z,65.33
2019-02-08T19:26:27.979Z,65.50
2019-02-08T19:28:58.454Z,65.45
2019-02-08T19:31:27.984Z,65.36
2019-02-08T19:33:57.611Z,65.37
2019-02-08T19:36:27.200Z,65.06
2019-02-08T19:38:58.027Z,65.08
2019-02-08T19:41:29.239Z,64.78
2019-02-08T19:44:01.272Z,64.94
2019-02-08T19:46:32.055Z,64.91
2019-02-08T19:49:01.703Z,65.01
2019-02-08T19:51:31.366Z,64.99
2019-02-08T19:54:02.449Z,64.64
2019-02-08T19:56:33.405Z,64.58
2019-02-08T19:59:03.220Z,64.35
2019-02-08T20:01:32.915Z,64.17
2019-02-08T20:04:03.663Z,64.08
2019-02-08T20:06:35.620Z,64.02
2019-02-08T20:09:09.552Z,63.99
2019-02-08T20:11:40.233Z,63.66
2019-02-08T20:14:12.397Z,63.66
2019-02-08T20:16:43.176Z,63.70
2019-02-08T20:19:13.264Z,64.00
2019-02-08T20:21:44.338Z,63.72
2019-02-08T20:24:15.125Z,63.34
2019-02-08T20:26:46.118Z,63.04
2019-02-08T20:29:17.500Z,62.65
2019-02-08T20:31:48.009Z,63.26
2019-02-08T20:34:17.688Z,63.11
2019-02-08T20:36:47.370Z,63.01
2019-02-08T20:39:18.048Z,63.14
2019-02-08T20:41:48.685Z,63.36
2019-02-08T20:44:21.211Z,63.12
2019-02-08T20:46:52.888Z,63.34
2019-02-08T20:49:28.282Z,63.50
2019-02-08T20:51:58.435Z,63.49
2019-02-08T20:54:29.189Z,63.35
2019-02-08T20:56:59.264Z,63.52
2019-02-08T20:59:29.049Z,63.65
2019-02-08T21:02:00.317Z,63.45
2019-02-08T21:04:31.735Z,63.56
2019-02-08T21:07:01.038Z,63.71
2019-02-08T21:09:30.310Z,63.20
2019-02-08T21:11:59.634Z,63.31
2019-02-08T21:14:28.995Z,63.91
2019-02-08T21:16:59.876Z,62.88
2019-02-08T21:19:29.169Z,63.17
2019-02-08T21:21:58.448Z,63.05
2019-02-08T21:24:27.797Z,62.36
2019-02-08T21:26:57.078Z,62.03
2019-02-08T21:29:26.413Z,61.93
2019-02-08T21:31:55.669Z,61.76
2019-02-08T21:34:24.990Z,61.83
2019-02-08T21:36:54.266Z,61.55
2019-02-08T21:39:23.540Z,61.95
2019-02-08T21:41:52.832Z,61.56
2019-02-08T21:44:22.102Z,61.62
2019-02-08T21:46:51.375Z,61.86
2019-02-08T21:49:20.653Z,61.85
2019-02-08T21:51:50.052Z,62.13
2019-02-08T21:54:19.327Z,62.19
2019-02-08T21:56:48.608Z,62.72
2019-02-08T21:59:17.896Z,62.24
2019-02-08T22:01:47.441Z,62.43
2019-02-08T22:04:16.721Z,62.22
2019-02-08T22:06:46.042Z,62.50
2019-02-08T22:09:15.631Z,62.75
2019-02-08T22:11:44.915Z,62.95
2019-02-08T22:14:14.163Z,63.04
2019-02-08T22:16:43.466Z,62.36
2019-02-08T22:19:12.710Z,62.52
2019-02-08T22:21:43.102Z,62.21
2019-02-08T22:24:12.351Z,62.31
2019-02-08T22:26:42.884Z,62.26
2019-02-08T22:29:14.443Z,62.23
2019-02-08T22:31:44.725Z,62.31
2019-02-08T22:34:15.156Z,62.50
2019-02-08T22:36:46.146Z,62.31
2019-02-08T22:39:17.171Z,62.57
2019-02-08T22:41:48.158Z,61.91
2019-02-08T22:44:19.263Z,62.40
2019-02-08T22:46:50.724Z,62.13
2019-02-08T22:49:21.573Z,61.94
2019-02-08T22:51:53.355Z,61.76
2019-02-08T22:54:23.935Z,62.08
2019-02-08T22:56:55.182Z,61.73
2019-02-08T22:59:25.050Z,61.45
2019-02-08T23:01:55.506Z,61.48
2019-02-08T23:04:24.810Z,61.55
2019-02-08T23:06:54.127Z,61.16
2019-02-08T23:09:24.599Z,61.53
2019-02-08T23:11:53.846Z,61.42
2019-02-08T23:14:23.562Z,61.39
2019-02-08T23:16:52.915Z,62.10
2019-02-08T23:19:22.207Z,61.68
2019-02-08T23:21:51.457Z,61.82
2019-02-08T23:24:20.742Z,61.93
2019-02-08T23:26:50.370Z,61.83
2019-02-08T23:29:19.637Z,61.92
2019-02-08T23:31:48.942Z,61.93
2019-02-08T23:34:18.353Z,62.24
2019-02-08T23:36:47.634Z,62.51
2019-02-08T23:39:16.915Z,62.78
2019-02-08T23:41:47.659Z,62.75
2019-02-08T23:44:16.935Z,62.66
2019-02-08T23:46:46.265Z,62.61
2019-02-08T23:49:17.241Z,62.64
2019-02-08T23:51:46.531Z,62.33
2019-02-08T23:54:16.243Z,62.54
2019-02-08T23:56:45.487Z,62.51
2019-02-08T23:59:16.232Z,62.93
